Time;durP1;ratioP1;P1;durP2;ratioP2;P2;SDS_P1;SDS_P2;PMS_P1;PMS_P2;Temp;Humidity;BMP_temperature;BMP_pressure;BME280_temperature;BME280_humidity;BME280_pressure;Samples;Min_cycle;Max_cycle;Signal;HPM_P1;HPM_P2
2023/04/15 00:00:15;;;;;;;15.20;6.33;;;9.30;99.90;;;;;;4986631;28;20677;-82
2023/04/15 00:02:41;;;;;;;12.65;6.20;;;9.20;99.90;;;;;;4993818;28;20222;-84
2023/04/15 00:05:07;;;;;;;16.93;6.10;;;9.20;99.90;;;;;;4978645;28;20185;-84
2023/04/15 00:07:33;;;;;;;16.33;5.70;;;9.20;99.90;;;;;;4994116;28;20191;-83
2023/04/15 00:09:58;;;;;;;17.53;5.20;;;9.10;99.90;;;;;;4987952;28;21092;-82
2023/04/15 00:12:24;;;;;;;8.70;5.20;;;9.10;99.90;;;;;;4993301;28;20208;-83
2023/04/15 00:14:50;;;;;;;10.27;5.05;;;9.00;99.90;;;;;;4992629;28;20615;-83
2023/04/15 00:17:16;;;;;;;15.87;6.00;;;9.00;99.90;;;;;;4992044;28;20192;-83
2023/04/15 00:19:43;;;;;;;14.02;6.40;;;9.00;99.90;;;;;;4986164;28;20184;-84
2023/04/15 00:22:09;;;;;;;11.60;5.82;;;8.90;99.90;;;;;;4981782;28;20200;-83
2023/04/15 00:24:34;;;;;;;11.97;7.13;;;8.80;99.90;;;;;;4997057;28;20202;-82
2023/04/15 00:27:00;;;;;;;14.87;6.77;;;8.70;99.90;;;;;;4992029;28;20187;-82
2023/04/15 00:29:25;;;;;;;18.63;6.20;;;8.70;99.90;;;;;;4988163;28;20227;-85
2023/04/15 00:31:51;;;;;;;10.37;6.53;;;8.60;99.90;;;;;;4998367;28;20212;-85
2023/04/15 00:34:17;;;;;;;8.03;5.67;;;8.50;99.90;;;;;;5010040;28;20179;-86
2023/04/15 00:36:43;;;;;;;12.50;5.60;;;8.50;99.90;;;;;;4994702;28;20191;-85
2023/04/15 00:39:09;;;;;;;10.73;5.88;;;8.50;99.90;;;;;;4995563;28;20180;-84
2023/04/15 00:41:38;;;;;;;19.67;5.90;;;8.60;99.90;;;;;;4997267;28;20192;-84
2023/04/15 00:44:04;;;;;;;16.48;6.43;;;8.50;99.90;;;;;;5005287;28;20164;-85
2023/04/15 00:46:30;;;;;;;11.40;5.85;;;8.50;99.90;;;;;;5004819;28;20192;-86
2023/04/15 00:48:56;;;;;;;11.30;6.22;;;8.50;99.90;;;;;;4997576;28;20192;-85
2023/04/15 00:51:21;;;;;;;9.57;6.13;;;8.50;99.90;;;;;;4996596;28;20215;-84
2023/04/15 00:53:47;;;;;;;7.90;6.40;;;8.50;99.90;;;;;;5007587;28;20191;-84
2023/04/15 00:56:13;;;;;;;16.20;5.93;;;8.50;99.90;;;;;;4989046;28;20207;-84
2023/04/15 00:58:39;;;;;;;10.90;5.90;;;8.50;99.90;;;;;;4997857;28;20203;-84
2023/04/15 01:01:04;;;;;;;10.13;6.57;;;8.50;99.90;;;;;;4998048;28;20474;-86
2023/04/15 01:03:30;;;;;;;11.10;7.60;;;8.50;99.90;;;;;;5000338;28;20207;-84
2023/04/15 01:05:58;;;;;;;21.27;8.83;;;8.40;99.90;;;;;;5005099;28;20196;-84
2023/04/15 01:08:28;;;;;;;12.10;7.55;;;8.40;99.90;;;;;;4995683;28;20187;-84
2023/04/15 01:10:56;;;;;;;14.32;7.43;;;8.30;99.90;;;;;;4999699;28;20207;-84
2023/04/15 01:13:23;;;;;;;9.63;7.03;;;8.30;99.90;;;;;;5000001;28;20224;-87
2023/04/15 01:15:50;;;;;;;7.30;5.53;;;8.20;99.90;;;;;;4997387;28;20202;-85
2023/04/15 01:18:16;;;;;;;9.07;5.53;;;8.20;99.90;;;;;;5000808;28;20175;-85
2023/04/15 01:20:42;;;;;;;8.27;6.27;;;8.20;99.90;;;;;;4999723;28;20201;-87
2023/04/15 01:23:08;;;;;;;9.60;5.80;;;8.20;99.90;;;;;;5002982;28;20539;-85
2023/04/15 01:25:34;;;;;;;13.75;6.10;;;8.10;99.90;;;;;;4993711;28;20255;-85
2023/04/15 01:28:00;;;;;;;10.60;5.87;;;8.10;99.90;;;;;;5009578;28;20194;-84
2023/04/15 01:30:26;;;;;;;7.33;6.03;;;8.00;99.90;;;;;;5002025;28;20246;-83
2023/04/15 01:32:52;;;;;;;10.07;5.82;;;8.00;99.90;;;;;;4995310;28;20461;-86
2023/04/15 01:35:18;;;;;;;6.03;5.43;;;8.00;99.90;;;;;;4994915;28;20203;-85
2023/04/15 01:37:44;;;;;;;14.52;6.88;;;8.00;99.90;;;;;;5000561;28;20192;-83
2023/04/15 01:40:10;;;;;;;8.60;5.70;;;8.00;99.90;;;;;;4993329;28;20201;-84
2023/04/15 01:42:36;;;;;;;8.83;5.07;;;7.90;99.90;;;;;;5009231;28;20474;-83
2023/04/15 01:45:02;;;;;;;10.35;6.13;;;7.90;99.90;;;;;;4993122;28;20181;-85
2023/04/15 01:47:27;;;;;;;10.73;6.70;;;7.90;99.90;;;;;;4996445;28;20219;-83
2023/04/15 01:49:53;;;;;;;12.50;6.17;;;7.90;99.90;;;;;;4991577;28;20462;-86
2023/04/15 01:52:18;;;;;;;10.00;6.23;;;7.90;99.90;;;;;;5001733;28;20221;-85
2023/04/15 01:54:44;;;;;;;16.63;5.87;;;7.90;99.90;;;;;;4997292;28;20187;-86
2023/04/15 01:57:10;;;;;;;9.63;5.93;;;7.90;99.90;;;;;;5006395;28;20202;-84
2023/04/15 01:59:36;;;;;;;14.40;5.73;;;7.90;99.90;;;;;;5005883;28;20438;-85
2023/04/15 02:02:01;;;;;;;11.33;6.50;;;7.90;99.90;;;;;;4999969;28;20215;-84
2023/04/15 02:04:27;;;;;;;9.53;5.67;;;7.80;99.90;;;;;;4999822;28;20477;-85
2023/04/15 02:06:53;;;;;;;10.07;6.28;;;7.80;99.90;;;;;;5003728;28;20191;-85
2023/04/15 02:09:18;;;;;;;9.30;5.23;;;7.80;99.90;;;;;;4998855;28;20180;-86
2023/04/15 02:11:45;;;;;;;13.10;6.40;;;7.80;99.90;;;;;;4995996;28;20207;-84
2023/04/15 02:14:10;;;;;;;11.80;5.80;;;7.70;99.90;;;;;;5000971;28;20267;-86
2023/04/15 02:16:36;;;;;;;17.67;7.00;;;7.70;99.90;;;;;;5001384;28;20200;-84
2023/04/15 02:19:02;;;;;;;12.60;6.93;;;7.70;99.90;;;;;;5006698;28;20208;-86
2023/04/15 02:21:29;;;;;;;18.45;6.30;;;7.70;99.90;;;;;;4997026;28;20206;-84
2023/04/15 02:23:55;;;;;;;11.55;6.55;;;7.80;99.90;;;;;;4993882;28;20208;-85
2023/04/15 02:26:21;;;;;;;23.65;6.35;;;7.80;1.00;;;;;;4999848;28;20199;-85
2023/04/15 02:28:47;;;;;;;21.67;6.55;;;7.70;1.00;;;;;;5000668;28;20193;-84
2023/04/15 02:31:13;;;;;;;11.05;6.00;;;7.70;1.00;;;;;;4999173;28;20275;-85
2023/04/15 02:33:39;;;;;;;17.30;6.57;;;7.70;1.00;;;;;;4995809;28;20204;-83
2023/04/15 02:36:05;;;;;;;21.20;6.57;;;7.60;1.00;;;;;;4996165;28;20192;-87
2023/04/15 02:38:33;;;;;;;24.83;6.32;;;7.60;1.00;;;;;;4996147;28;20188;-84
2023/04/15 02:40:59;;;;;;;16.52;6.88;;;7.60;1.00;;;;;;5003153;28;20303;-85
2023/04/15 02:43:24;;;;;;;12.07;6.33;;;7.60;1.00;;;;;;5006337;28;20227;-86
2023/04/15 02:45:51;;;;;;;12.33;5.87;;;7.60;1.00;;;;;;5001572;28;20248;-85
2023/04/15 02:48:18;;;;;;;15.35;6.18;;;7.60;1.00;;;;;;5009925;28;20188;-83
2023/04/15 02:50:44;;;;;;;22.17;6.88;;;7.60;1.00;;;;;;4985738;28;20565;-82
2023/04/15 02:53:10;;;;;;;15.23;6.65;;;7.60;1.00;;;;;;4995233;28;20195;-82
2023/04/15 02:55:36;;;;;;;15.87;6.50;;;7.50;1.00;;;;;;4982479;28;20186;-82
2023/04/15 02:58:01;;;;;;;19.20;7.20;;;7.50;1.00;;;;;;4979142;28;20447;-82
2023/04/15 03:00:27;;;;;;;17.00;6.60;;;7.50;1.00;;;;;;4986278;28;20570;-82
2023/04/15 03:03:06;;;;;;;10.17;6.03;;;7.40;1.00;;;;;;4992231;28;20686;-82
2023/04/15 03:05:32;;;;;;;16.27;6.10;;;7.40;1.00;;;;;;4984619;28;20306;-83
2023/04/15 03:07:57;;;;;;;18.20;6.30;;;7.40;1.00;;;;;;4999056;28;20611;-82
2023/04/15 03:10:23;;;;;;;13.77;6.23;;;7.40;1.00;;;;;;4986137;28;20235;-82
2023/04/15 03:12:48;;;;;;;19.67;7.50;;;7.30;1.00;;;;;;4996263;28;20203;-82
2023/04/15 03:15:14;;;;;;;12.50;6.33;;;7.30;1.00;;;;;;4983868;28;20180;-82
2023/04/15 03:17:40;;;;;;;20.23;7.07;;;7.20;1.00;;;;;;4990564;28;20643;-85
2023/04/15 03:20:06;;;;;;;15.03;6.80;;;7.10;1.00;;;;;;4970371;28;20216;-82
2023/04/15 03:22:32;;;;;;;16.63;6.35;;;7.10;1.00;;;;;;4996372;28;20211;-82
2023/04/15 03:24:57;;;;;;;11.40;6.00;;;7.10;1.00;;;;;;4997891;28;20192;-82
2023/04/15 03:27:23;;;;;;;13.97;6.13;;;7.00;1.00;;;;;;4983448;28;20438;-82
2023/04/15 03:29:49;;;;;;;16.38;6.75;;;7.00;1.00;;;;;;4989270;28;20283;-82
2023/04/15 03:32:15;;;;;;;13.60;6.93;;;7.00;1.00;;;;;;4970712;28;20231;-83
2023/04/15 03:34:41;;;;;;;18.70;7.50;;;7.00;1.00;;;;;;4985178;28;20184;-86
2023/04/15 03:37:06;;;;;;;11.17;7.47;;;7.00;1.00;;;;;;5003497;28;20184;-84
2023/04/15 03:39:35;;;;;;;12.27;7.23;;;7.00;1.00;;;;;;5000744;28;20188;-84
2023/04/15 03:42:02;;;;;;;12.40;6.88;;;6.90;1.00;;;;;;5009717;28;20214;-84
2023/04/15 03:44:27;;;;;;;15.43;7.05;;;6.90;1.00;;;;;;5010483;28;20187;-84
2023/04/15 03:46:53;;;;;;;17.43;7.07;;;6.80;1.00;;;;;;5001002;28;20254;-84
2023/04/15 03:49:19;;;;;;;14.70;7.10;;;6.80;1.00;;;;;;4994901;28;20215;-84
2023/04/15 03:51:45;;;;;;;11.85;6.93;;;6.80;1.00;;;;;;4999298;28;20210;-83
2023/04/15 03:54:11;;;;;;;13.77;7.13;;;6.70;1.00;;;;;;4999546;28;20187;-83
2023/04/15 03:56:37;;;;;;;12.88;7.35;;;6.60;1.00;;;;;;4995819;28;20184;-84
2023/04/15 03:59:02;;;;;;;13.53;7.37;;;6.60;1.00;;;;;;4997114;28;20322;-84
2023/04/15 04:01:28;;;;;;;13.80;7.70;;;6.60;1.00;;;;;;5008493;28;20223;-85
2023/04/15 04:03:54;;;;;;;9.70;7.90;;;6.50;1.00;;;;;;4990798;28;20249;-84
2023/04/15 04:06:19;;;;;;;8.63;7.50;;;6.50;1.00;;;;;;4996152;28;20194;-84
2023/04/15 04:08:45;;;;;;;11.97;7.30;;;6.50;1.00;;;;;;4997193;28;20184;-85
2023/04/15 04:11:10;;;;;;;9.87;7.30;;;6.50;1.00;;;;;;5005349;28;20321;-84
2023/04/15 04:13:36;;;;;;;14.50;7.77;;;6.50;1.00;;;;;;4992401;28;20208;-84
2023/04/15 04:16:03;;;;;;;14.13;7.80;;;6.50;1.00;;;;;;4997005;28;20196;-86
2023/04/15 04:18:30;;;;;;;12.70;8.68;;;6.50;1.00;;;;;;4992988;28;20222;-82
2023/04/15 04:20:55;;;;;;;11.30;7.40;;;6.50;1.00;;;;;;5008501;28;20215;-84
2023/04/15 04:23:21;;;;;;;11.20;8.77;;;6.50;1.00;;;;;;5002215;28;20211;-86
2023/04/15 04:25:46;;;;;;;14.67;7.47;;;6.50;1.00;;;;;;5006376;28;20210;-84
2023/04/15 04:28:12;;;;;;;8.53;7.20;;;6.50;1.00;;;;;;4994795;28;20196;-84
2023/04/15 04:30:38;;;;;;;10.30;7.70;;;6.40;1.00;;;;;;4989468;28;20188;-84
2023/04/15 04:33:03;;;;;;;9.43;7.30;;;6.40;1.00;;;;;;4994307;28;20204;-87
2023/04/15 04:35:29;;;;;;;11.63;8.03;;;6.50;1.00;;;;;;5008626;28;20202;-83
2023/04/15 04:37:55;;;;;;;10.13;7.37;;;6.40;1.00;;;;;;4991998;28;20958;-84
2023/04/15 04:40:20;;;;;;;10.75;7.25;;;6.40;1.00;;;;;;4996826;28;20203;-84
2023/04/15 04:42:46;;;;;;;12.30;7.90;;;6.40;1.00;;;;;;5002408;28;20218;-83
2023/04/15 04:45:12;;;;;;;9.60;8.17;;;6.40;1.00;;;;;;4989414;28;20186;-85
2023/04/15 04:47:37;;;;;;;10.17;7.10;;;6.40;1.00;;;;;;4999181;28;20188;-84
2023/04/15 04:50:03;;;;;;;11.53;8.50;;;6.40;1.00;;;;;;5000957;28;20730;-84
2023/04/15 04:52:29;;;;;;;11.27;9.10;;;6.40;1.00;;;;;;4997551;28;20680;-85
2023/04/15 04:54:54;;;;;;;12.30;9.60;;;6.40;1.00;;;;;;4988508;28;20447;-84
2023/04/15 04:57:20;;;;;;;12.13;7.80;;;6.50;1.00;;;;;;4994713;28;20188;-84
2023/04/15 04:59:45;;;;;;;12.13;8.73;;;6.60;1.00;;;;;;4990563;28;20239;-86
2023/04/15 05:02:11;;;;;;;13.00;8.33;;;6.60;1.00;;;;;;4986661;28;20204;-84
2023/04/15 05:04:36;;;;;;;13.40;9.23;;;6.70;1.00;;;;;;4991519;28;20202;-84
2023/04/15 05:07:02;;;;;;;10.67;8.37;;;6.80;1.00;;;;;;4993847;28;20243;-87
2023/04/15 05:09:31;;;;;;;11.20;9.00;;;6.80;1.00;;;;;;5000715;28;20192;-85
2023/04/15 05:11:56;;;;;;;13.10;8.60;;;7.00;1.00;;;;;;4998353;28;20237;-86
2023/04/15 05:14:25;;;;;;;10.97;8.20;;;7.10;1.00;;;;;;4994532;28;20180;-86
2023/04/15 05:16:51;;;;;;;9.43;8.25;;;7.20;1.00;;;;;;5006920;28;20179;-84
2023/04/15 05:19:16;;;;;;;10.13;9.03;;;7.40;1.00;;;;;;4991959;28;20186;-85
2023/04/15 05:21:42;;;;;;;10.10;8.67;;;7.50;1.00;;;;;;4999825;28;20214;-85
2023/04/15 05:24:10;;;;;;;16.30;9.60;;;7.60;1.00;;;;;;4992999;28;20287;-85
2023/04/15 05:26:36;;;;;;;11.77;8.23;;;7.80;1.00;;;;;;4995918;28;20176;-84
2023/04/15 05:30:12;;;;;;;10.67;8.40;;;7.90;1.00;;;;;;5000743;28;20183;-83
2023/04/15 05:32:37;;;;;;;11.35;8.68;;;8.10;1.00;;;;;;4975147;28;20219;-85
2023/04/15 05:35:03;;;;;;;11.77;9.33;;;8.50;99.90;;;;;;4979183;28;20192;-85
2023/04/15 05:37:29;;;;;;;12.20;8.70;;;9.00;99.90;;;;;;4984893;28;20195;-86
2023/04/15 05:39:55;;;;;;;13.27;8.90;;;10.20;99.90;;;;;;4985425;28;20557;-84
2023/04/15 05:42:21;;;;;;;8.63;7.57;;;11.60;99.90;;;;;;4989555;28;20686;-84
2023/04/15 05:44:46;;;;;;;14.80;8.33;;;13.10;99.90;;;;;;4981849;28;20475;-85
2023/04/15 05:47:12;;;;;;;12.00;9.27;;;14.50;99.90;;;;;;5000984;28;20190;-84
2023/04/15 05:49:37;;;;;;;10.97;7.40;;;15.20;99.90;;;;;;5007175;28;20254;-85
2023/04/15 05:52:05;;;;;;;11.00;8.10;;;15.60;99.90;;;;;;4998956;28;20208;-84
2023/04/15 05:54:31;;;;;;;10.73;8.30;;;15.90;99.90;;;;;;4997362;28;20211;-85
2023/04/15 05:56:57;;;;;;;10.20;8.13;;;16.30;99.90;;;;;;4975602;28;20441;-84
2023/04/15 05:59:22;;;;;;;10.17;7.40;;;17.20;99.90;;;;;;4988118;28;20187;-85
2023/04/15 06:01:50;;;;;;;11.63;7.70;;;17.80;99.90;;;;;;4986368;28;20455;-85
2023/04/15 06:07:23;;;;;;;9.63;7.73;;;18.90;99.90;;;;;;4967553;28;20445;-84
2023/04/15 06:09:56;;;;;;;9.57;7.50;;;20.10;99.90;;;;;;4988871;28;20456;-85
2023/04/15 06:12:22;;;;;;;11.93;7.10;;;22.10;99.90;;;;;;4969206;28;20874;-85
2023/04/15 06:14:56;;;;;;;8.67;7.77;;;24.30;99.90;;;;;;4982433;28;20525;-86
2023/04/15 06:17:36;;;;;;;7.10;6.40;;;25.90;99.90;;;;;;4974078;28;20211;-85
2023/04/15 06:20:02;;;;;;;9.53;7.63;;;27.30;99.90;;;;;;4987984;28;20439;-85
2023/04/15 06:22:33;;;;;;;12.10;7.90;;;27.60;99.90;;;;;;4980547;28;20514;-85
2023/04/15 06:25:07;;;;;;;9.17;8.27;;;27.30;99.90;;;;;;4976324;28;20462;-84
2023/04/15 06:27:39;;;;;;;9.40;7.90;;;26.00;99.90;;;;;;4981747;28;20454;-85
2023/04/15 06:30:07;;;;;;;11.83;8.70;;;24.80;99.90;;;;;;4975846;28;20472;-85
2023/04/15 06:32:38;;;;;;;9.57;8.20;;;23.80;99.90;;;;;;4984698;28;20466;-84
2023/04/15 06:35:04;;;;;;;9.77;8.30;;;24.00;99.90;;;;;;4984365;28;20442;-84
2023/04/15 06:37:30;;;;;;;10.27;9.17;;;24.60;99.90;;;;;;4981295;28;20439;-85
2023/04/15 06:39:55;;;;;;;14.23;9.07;;;25.20;99.90;;;;;;4986004;28;20191;-85
2023/04/15 06:42:21;;;;;;;13.73;9.90;;;24.70;99.90;;;;;;4973451;28;20210;-84
2023/04/15 06:44:47;;;;;;;10.83;9.70;;;23.50;99.90;;;;;;4982493;28;20225;-85
2023/04/15 06:47:13;;;;;;;10.97;9.97;;;22.50;99.90;;;;;;4981172;28;20448;-85
2023/04/15 06:49:39;;;;;;;10.83;9.70;;;21.80;99.90;;;;;;4985731;28;20232;-85
2023/04/15 06:52:05;;;;;;;11.60;10.50;;;21.10;99.90;;;;;;4978287;28;20981;-84
2023/04/15 06:54:30;;;;;;;11.97;10.73;;;20.30;99.90;;;;;;4984397;28;20441;-85
2023/04/15 06:56:56;;;;;;;13.17;11.60;;;19.60;99.90;;;;;;4983734;28;20194;-85
2023/04/15 06:59:21;;;;;;;14.53;9.90;;;19.30;99.90;;;;;;4987111;28;20177;-85
2023/04/15 07:01:50;;;;;;;14.60;10.90;;;19.00;99.90;;;;;;4977057;28;20200;-85
2023/04/15 07:04:16;;;;;;;11.50;10.30;;;18.60;99.90;;;;;;4996775;28;20256;-85
2023/04/15 07:06:42;;;;;;;18.50;11.17;;;18.50;99.90;;;;;;4988363;28;20469;-83
2023/04/15 07:09:07;;;;;;;13.50;11.50;;;18.70;99.90;;;;;;4997737;28;20192;-85
2023/04/15 07:11:33;;;;;;;13.87;11.17;;;18.90;99.90;;;;;;4980670;28;20216;-85
2023/04/15 07:13:58;;;;;;;15.37;10.80;;;18.70;99.90;;;;;;4989308;28;20187;-85
2023/04/15 07:16:24;;;;;;;13.80;12.37;;;18.40;99.90;;;;;;4980639;28;20192;-85
2023/04/15 07:18:49;;;;;;;15.23;13.40;;;18.10;99.90;;;;;;4986900;28;20187;-84
2023/04/15 07:21:15;;;;;;;17.67;11.70;;;17.80;99.90;;;;;;4992684;28;20247;-85
2023/04/15 07:23:41;;;;;;;16.50;12.67;;;17.50;99.90;;;;;;4967892;28;20221;-85
2023/04/15 07:26:07;;;;;;;15.23;12.83;;;17.30;99.90;;;;;;4971293;28;20201;-85
2023/04/15 07:28:33;;;;;;;17.80;12.83;;;17.20;99.90;;;;;;4979543;28;20232;-84
2023/04/15 07:30:59;;;;;;;20.50;12.20;;;17.30;99.90;;;;;;4983392;28;20472;-83
2023/04/15 07:33:25;;;;;;;13.90;12.50;;;17.50;99.90;;;;;;4986402;28;20218;-84
2023/04/15 07:35:50;;;;;;;15.03;13.47;;;18.00;99.90;;;;;;4978648;28;20190;-84
2023/04/15 07:38:16;;;;;;;12.90;11.60;;;18.30;99.90;;;;;;4975628;28;20444;-85
2023/04/15 07:40:48;;;;;;;13.50;12.20;;;18.70;99.90;;;;;;4977266;28;20198;-84
2023/04/15 07:43:14;;;;;;;13.90;12.40;;;19.40;99.90;;;;;;4982476;28;20218;-85
2023/04/15 07:45:39;;;;;;;12.67;11.37;;;20.50;99.90;;;;;;4989070;28;20468;-85
2023/04/15 07:48:05;;;;;;;12.50;11.23;;;21.40;99.90;;;;;;4984846;28;20964;-85
2023/04/15 07:50:31;;;;;;;11.57;10.47;;;22.30;99.90;;;;;;4981012;28;20213;-85
2023/04/15 07:52:56;;;;;;;11.70;9.70;;;23.70;99.90;;;;;;4973799;28;20525;-84
2023/04/15 07:55:22;;;;;;;10.67;9.20;;;24.60;99.90;;;;;;4975347;28;20198;-84
2023/04/15 07:57:48;;;;;;;11.90;10.70;;;25.20;99.90;;;;;;4981903;28;20195;-84
2023/04/15 08:00:15;;;;;;;12.30;10.93;;;24.70;99.90;;;;;;4978202;28;20233;-84
2023/04/15 08:02:41;;;;;;;11.40;10.10;;;24.10;99.90;;;;;;4990268;28;20485;-85
2023/04/15 08:05:08;;;;;;;14.37;10.70;;;23.90;99.90;;;;;;4982117;28;20447;-85
2023/04/15 08:07:34;;;;;;;12.10;10.90;;;24.00;99.90;;;;;;4987225;28;20453;-85
2023/04/15 08:09:59;;;;;;;11.53;9.50;;;24.20;99.90;;;;;;4989811;28;20563;-84
2023/04/15 08:12:25;;;;;;;9.67;8.70;;;25.00;99.90;;;;;;4981193;28;20252;-84
2023/04/15 08:14:51;;;;;;;9.20;8.30;;;25.30;99.90;;;;;;4983753;28;20611;-84
2023/04/15 08:17:16;;;;;;;8.50;7.70;;;25.10;99.90;;;;;;4998092;28;20190;-84
2023/04/15 08:19:42;;;;;;;11.20;8.07;;;24.80;99.90;;;;;;4993054;28;20536;-84
2023/04/15 08:22:07;;;;;;;8.83;7.80;;;24.30;99.90;;;;;;4997913;28;20223;-84
2023/04/15 08:24:33;;;;;;;9.53;8.60;;;23.90;99.90;;;;;;4991507;28;20209;-84
2023/04/15 08:26:59;;;;;;;8.87;7.60;;;23.80;99.90;;;;;;4987270;28;20225;-85
2023/04/15 08:29:24;;;;;;;8.43;7.53;;;24.10;99.90;;;;;;4990873;28;20213;-85
2023/04/15 08:31:50;;;;;;;8.47;7.60;;;24.50;99.90;;;;;;4979851;28;20234;-85
2023/04/15 08:34:15;;;;;;;8.23;7.20;;;24.70;99.90;;;;;;4985446;28;20248;-84
2023/04/15 08:36:41;;;;;;;9.17;7.97;;;25.10;99.90;;;;;;4987333;28;20238;-84
2023/04/15 08:39:07;;;;;;;9.07;7.67;;;25.40;99.90;;;;;;4988352;28;20188;-84
2023/04/15 08:41:46;;;;;;;8.17;7.47;;;25.10;99.90;;;;;;4982564;28;20934;-84
2023/04/15 08:44:13;;;;;;;8.37;7.63;;;24.50;99.90;;;;;;4987805;28;20183;-85
2023/04/15 08:46:41;;;;;;;10.50;9.40;;;24.10;99.90;;;;;;4996809;28;20446;-85
2023/04/15 08:49:09;;;;;;;9.37;8.43;;;23.90;99.90;;;;;;4986971;28;20433;-84
2023/04/15 08:51:35;;;;;;;11.63;8.20;;;24.30;99.90;;;;;;4977686;28;20481;-84
2023/04/15 08:54:01;;;;;;;12.50;9.30;;;24.70;99.90;;;;;;4975696;28;20535;-84
2023/04/15 08:56:29;;;;;;;9.73;7.90;;;25.40;99.90;;;;;;4987005;28;20183;-84
2023/04/15 08:58:55;;;;;;;8.23;7.43;;;26.80;99.90;;;;;;4977475;28;20962;-85
2023/04/15 09:01:21;;;;;;;10.80;8.57;;;27.90;99.90;;;;;;4979604;28;20435;-85
2023/04/15 09:03:48;;;;;;;8.70;7.83;;;28.80;99.90;;;;;;4960987;28;20462;-85
2023/04/15 09:06:16;;;;;;;8.97;8.07;;;29.60;99.90;;;;;;4968214;28;20445;-85
2023/04/15 09:08:41;;;;;;;10.30;7.80;;;30.10;99.90;;;;;;4976568;28;20510;-85
2023/04/15 09:11:07;;;;;;;7.90;7.10;;;30.30;99.90;;;;;;4969548;28;20482;-85
2023/04/15 09:13:33;;;;;;;8.00;7.20;;;30.10;99.90;;;;;;4971898;28;20220;-85
2023/04/15 09:16:02;;;;;;;10.50;8.10;;;29.90;99.90;;;;;;4981809;28;20237;-84
2023/04/15 09:18:32;;;;;;;9.77;8.70;;;29.70;99.90;;;;;;4973183;28;20192;-84
2023/04/15 09:21:07;;;;;;;9.57;8.37;;;29.70;99.90;;;;;;4978365;28;20471;-85
2023/04/15 09:23:33;;;;;;;9.60;7.83;;;29.60;99.90;;;;;;4987045;28;20474;-85
2023/04/15 09:26:00;;;;;;;9.43;8.47;;;29.50;99.90;;;;;;5008763;28;20418;-85
2023/04/15 09:28:26;;;;;;;9.63;8.03;;;29.30;99.90;;;;;;5013058;28;20454;-85
2023/04/15 09:30:55;;;;;;;8.70;7.90;;;29.30;99.90;;;;;;5001224;28;20508;-83
2023/04/15 09:33:21;;;;;;;9.03;8.20;;;29.40;99.90;;;;;;4992504;28;20203;-85
2023/04/15 09:35:58;;;;;;;8.37;7.57;;;29.40;99.90;;;;;;4977623;28;20498;-85
2023/04/15 09:38:23;;;;;;;10.87;7.13;;;29.30;99.90;;;;;;4993345;28;20524;-85
2023/04/15 09:40:49;;;;;;;7.77;6.13;;;29.30;99.90;;;;;;4991036;28;20484;-85
2023/04/15 09:43:16;;;;;;;4.73;4.00;;;29.30;99.90;;;;;;4984295;28;20218;-85
2023/04/15 09:45:52;;;;;;;8.10;6.27;;;29.00;99.90;;;;;;4973947;28;20191;-85
2023/04/15 09:48:22;;;;;;;5.60;4.70;;;28.40;99.90;;;;;;4973229;28;20509;-85
2023/04/15 09:50:49;;;;;;;6.00;5.13;;;27.70;99.10;;;;;;4991560;28;21025;-81
2023/04/15 09:53:17;;;;;;;7.07;4.30;;;27.00;97.60;;;;;;4978940;28;20809;-84
2023/04/15 09:56:06;;;;;;;6.53;5.67;;;26.30;95.80;;;;;;4994367;28;20574;-84
2023/04/15 09:58:33;;;;;;;6.87;4.93;;;25.40;93.90;;;;;;4994460;28;20422;-83
2023/04/15 10:01:01;;;;;;;4.60;4.20;;;25.10;93.40;;;;;;4995856;28;20450;-82
2023/04/15 10:03:32;;;;;;;4.17;3.80;;;25.00;93.60;;;;;;4996596;28;20453;-84
2023/04/15 10:06:00;;;;;;;3.70;3.37;;;25.20;94.30;;;;;;4995777;28;20431;-84
2023/04/15 10:08:32;;;;;;;4.13;3.60;;;25.40;94.30;;;;;;4995488;28;20434;-83
2023/04/15 10:10:59;;;;;;;8.53;3.20;;;25.40;94.80;;;;;;4984965;28;20466;-84
2023/04/15 10:13:39;;;;;;;3.57;3.27;;;25.50;94.70;;;;;;4998363;28;20493;-84
2023/04/15 10:16:18;;;;;;;7.13;3.27;;;25.40;94.50;;;;;;4996554;28;20426;-84
2023/04/15 10:18:46;;;;;;;4.47;4.07;;;25.30;94.10;;;;;;4995438;28;20810;-84
2023/04/15 10:21:17;;;;;;;5.27;4.77;;;25.40;94.10;;;;;;4995056;28;20462;-84
2023/04/15 10:23:44;;;;;;;4.63;4.00;;;25.30;93.70;;;;;;4994878;28;20469;-83
2023/04/15 10:26:11;;;;;;;4.30;3.90;;;25.30;94.10;;;;;;4973425;28;20443;-84
2023/04/15 10:28:37;;;;;;;3.40;3.10;;;25.40;94.30;;;;;;4973293;28;20431;-84
2023/04/15 10:31:04;;;;;;;3.70;3.30;;;25.60;94.80;;;;;;4990559;28;20489;-84
2023/04/15 10:33:30;;;;;;;3.23;2.80;;;25.60;95.10;;;;;;4992535;28;20450;-84
2023/04/15 10:35:56;;;;;;;3.53;3.23;;;25.40;94.80;;;;;;4991912;28;20572;-84
2023/04/15 10:38:41;;;;;;;4.90;3.37;;;25.30;94.10;;;;;;4988359;28;20446;-84
2023/04/15 10:41:26;;;;;;;2.70;2.50;;;25.10;93.40;;;;;;4988104;28;20447;-84
2023/04/15 10:43:58;;;;;;;3.10;2.57;;;25.00;93.30;;;;;;4979710;28;20865;-84
2023/04/15 10:46:39;;;;;;;3.60;3.00;;;25.00;93.30;;;;;;4994922;28;20515;-84
2023/04/15 10:49:11;;;;;;;3.47;3.17;;;25.10;93.70;;;;;;4996216;28;20427;-84
2023/04/15 10:51:40;;;;;;;4.10;3.07;;;25.20;94.30;;;;;;4990022;28;20466;-84
2023/04/15 10:54:15;;;;;;;4.00;3.67;;;25.20;94.50;;;;;;4996727;28;20501;-84
2023/04/15 10:56:44;;;;;;;4.00;3.40;;;25.70;95.30;;;;;;4996449;28;20545;-83
2023/04/15 10:59:10;;;;;;;4.83;4.33;;;26.60;97.40;;;;;;4984128;28;20942;-83
2023/04/15 11:02:00;;;;;;;5.67;4.70;;;27.30;98.70;;;;;;4990787;28;20430;-83
2023/04/15 11:04:57;;;;;;;4.93;4.53;;;27.00;98.00;;;;;;4994220;28;20184;-83
2023/04/15 11:07:45;;;;;;;4.80;4.27;;;26.60;96.50;;;;;;4994317;28;20484;-83
2023/04/15 11:10:17;;;;;;;5.73;4.00;;;26.30;95.90;;;;;;4994432;28;20505;-83
2023/04/15 11:12:43;;;;;;;3.50;3.20;;;27.00;97.40;;;;;;4994974;28;20804;-82
2023/04/15 11:15:33;;;;;;;3.87;3.47;;;27.40;98.70;;;;;;4975019;28;20483;-81
2023/04/15 11:18:13;;;;;;;4.50;3.87;;;28.20;99.50;;;;;;4993846;28;20498;-83
2023/04/15 11:20:40;;;;;;;3.30;3.00;;;28.50;99.50;;;;;;4992688;28;20411;-83
2023/04/15 11:23:07;;;;;;;2.87;2.67;;;29.30;99.90;;;;;;4985979;28;20454;-83
2023/04/15 11:25:34;;;;;;;3.00;2.80;;;29.30;99.90;;;;;;4994970;28;20997;-82
2023/04/15 11:28:00;;;;;;;8.33;3.07;;;28.50;99.90;;;;;;4995712;28;20422;-83
2023/04/15 11:30:29;;;;;;;3.93;2.60;;;27.60;95.40;;;;;;4994391;28;20644;-83
2023/04/15 11:32:58;;;;;;;6.20;2.93;;;27.10;94.50;;;;;;4984083;28;20500;-83
2023/04/15 11:35:24;;;;;;;3.10;2.80;;;26.70;93.20;;;;;;4984174;28;20818;-83
2023/04/15 11:37:50;;;;;;;4.67;2.63;;;26.20;92.10;;;;;;4993815;28;20938;-83
2023/04/15 11:40:21;;;;;;;3.30;3.00;;;25.80;90.90;;;;;;4984446;28;20446;-84
2023/04/15 11:42:46;;;;;;;4.40;3.00;;;25.40;90.00;;;;;;4994578;28;20587;-84
2023/04/15 11:45:14;;;;;;;3.83;3.53;;;25.40;90.20;;;;;;4984437;28;20445;-83
2023/04/15 11:47:41;;;;;;;5.30;3.60;;;25.50;91.20;;;;;;4996653;28;20674;-83
2023/04/15 11:50:21;;;;;;;4.83;4.13;;;25.40;91.10;;;;;;4986694;28;20466;-84
2023/04/15 11:52:58;;;;;;;4.43;4.00;;;25.60;91.80;;;;;;4982921;28;20831;-83
2023/04/15 11:55:25;;;;;;;3.87;3.50;;;25.40;91.70;;;;;;4979553;28;20443;-84
2023/04/15 11:58:12;;;;;;;4.53;4.00;;;25.50;92.50;;;;;;4984324;28;20498;-82
2023/04/15 12:00:39;;;;;;;3.63;3.30;;;25.30;92.10;;;;;;4995901;28;20422;-83
2023/04/15 12:03:22;;;;;;;4.77;4.23;;;25.50;92.60;;;;;;4990412;28;20485;-82
2023/04/15 12:06:03;;;;;;;4.43;3.47;;;25.70;93.20;;;;;;4991714;28;20443;-83
2023/04/15 12:08:48;;;;;;;3.57;3.13;;;25.40;92.20;;;;;;4994990;28;20832;-82
2023/04/15 12:11:18;;;;;;;5.30;2.80;;;24.80;90.70;;;;;;4986387;28;20461;-83
2023/04/15 12:13:48;;;;;;;3.60;3.20;;;24.60;90.40;;;;;;4996481;28;20444;-82
2023/04/15 12:16:20;;;;;;;4.17;3.77;;;25.10;92.00;;;;;;4993600;28;20426;-83
2023/04/15 12:18:50;;;;;;;4.23;3.47;;;25.40;92.70;;;;;;4996258;28;20423;-83
2023/04/15 12:21:18;;;;;;;4.17;3.40;;;25.10;92.40;;;;;;4996267;28;21004;-83
2023/04/15 12:23:51;;;;;;;4.80;3.40;;;25.40;93.50;;;;;;4994859;28;20822;-80
2023/04/15 12:26:24;;;;;;;4.30;3.67;;;25.40;92.70;;;;;;4974790;28;20443;-84
2023/04/15 12:29:03;;;;;;;3.77;3.47;;;25.60;93.70;;;;;;4972881;28;20454;-83
2023/04/15 12:31:28;;;;;;;4.00;3.60;;;25.90;94.00;;;;;;4995114;28;20466;-84
2023/04/15 12:33:56;;;;;;;4.13;3.73;;;25.70;93.50;;;;;;4984945;28;20442;-82
2023/04/15 12:36:22;;;;;;;4.70;3.83;;;25.80;93.70;;;;;;4979241;28;20196;-83
2023/04/15 12:38:48;;;;;;;4.20;3.70;;;25.50;93.00;;;;;;4994775;28;20949;-83
2023/04/15 12:41:13;;;;;;;3.97;3.57;;;25.20;92.50;;;;;;4984619;28;20446;-83
2023/04/15 12:43:39;;;;;;;4.00;3.60;;;24.70;91.10;;;;;;4994438;28;20226;-83
2023/04/15 12:46:05;;;;;;;5.63;3.87;;;24.30;99.40;;;;;;4986550;28;20281;-83
2023/04/15 12:48:32;;;;;;;3.30;3.00;;;23.80;90.10;;;;;;4992557;28;20192;-83
2023/04/15 12:50:57;;;;;;;4.50;3.60;;;23.50;88.80;;;;;;4988305;28;20476;-83
2023/04/15 12:53:23;;;;;;;3.80;2.90;;;23.30;89.30;;;;;;4992714;28;20493;-83